createdAt,value
2023-01-11T00:00:18.204Z,2.40
2023-01-11T00:02:39.760Z,1.97
2023-01-11T00:05:01.252Z,1.73
2023-01-11T00:07:22.668Z,2.13
2023-01-11T00:09:44.768Z,2.03
2023-01-11T00:12:06.385Z,2.47
2023-01-11T00:14:27.950Z,2.30
2023-01-11T00:16:49.336Z,2.13
2023-01-11T00:19:10.769Z,1.93
2023-01-11T00:21:32.257Z,3.00
2023-01-11T00:23:53.736Z,1.70
2023-01-11T00:26:15.836Z,1.90
2023-01-11T00:28:37.258Z,2.00
2023-01-11T00:30:59.523Z,1.80
2023-01-11T00:33:21.068Z,1.60
2023-01-11T00:35:42.500Z,1.80
2023-01-11T00:38:03.944Z,1.80
2023-01-11T00:40:26.401Z,1.70
2023-01-11T00:43:06.344Z,2.23
2023-01-11T00:45:46.305Z,2.20
2023-01-11T00:48:09.750Z,1.67
2023-01-11T00:50:36.121Z,1.70
2023-01-11T00:52:58.800Z,2.00
2023-01-11T00:55:20.292Z,2.10
2023-01-11T00:57:41.727Z,2.10
2023-01-11T01:00:04.255Z,2.17
2023-01-11T01:02:25.785Z,2.30
2023-01-11T01:04:47.229Z,2.27
2023-01-11T01:07:08.829Z,2.10
2023-01-11T01:09:30.665Z,1.90
2023-01-11T01:11:52.419Z,1.97
2023-01-11T01:14:28.885Z,2.00
2023-01-11T01:16:50.300Z,2.20
2023-01-11T01:19:12.301Z,1.60
2023-01-11T01:21:33.725Z,1.80
2023-01-11T01:23:55.834Z,1.77
2023-01-11T01:26:17.262Z,1.87
2023-01-11T01:28:38.695Z,1.73
2023-01-11T01:31:00.165Z,1.70
2023-01-11T01:33:22.588Z,1.57
2023-01-11T01:35:43.991Z,1.87
2023-01-11T01:38:06.166Z,1.77
2023-01-11T01:40:27.607Z,1.70
2023-01-11T01:42:53.468Z,1.80
2023-01-11T01:45:26.826Z,1.90
2023-01-11T01:47:52.948Z,1.87
2023-01-11T01:50:25.382Z,1.90
2023-01-11T01:52:50.277Z,2.00
2023-01-11T01:55:15.467Z,1.80
2023-01-11T01:57:39.999Z,1.70
2023-01-11T02:00:05.950Z,1.70
2023-01-11T02:02:27.584Z,1.90
2023-01-11T02:04:49.748Z,2.23
2023-01-11T02:07:16.324Z,2.10
2023-01-11T02:10:04.883Z,1.80
2023-01-11T02:12:30.474Z,2.20
2023-01-11T02:14:53.604Z,1.90
2023-01-11T02:17:15.386Z,1.60
2023-01-11T02:20:09.202Z,1.77
2023-01-11T02:23:05.363Z,1.80
2023-01-11T02:25:38.250Z,1.90
2023-01-11T02:28:08.239Z,1.83
2023-01-11T02:31:05.789Z,1.93
2023-01-11T02:34:00.770Z,1.63
2023-01-11T02:36:55.594Z,1.70
2023-01-11T02:39:31.081Z,1.87
2023-01-11T02:42:27.567Z,1.70
2023-01-11T02:45:04.088Z,1.80
2023-01-11T02:48:00.632Z,1.77
2023-01-11T02:50:37.750Z,1.93
2023-01-11T02:53:07.945Z,2.13
2023-01-11T02:55:34.717Z,1.83
2023-01-11T02:58:00.995Z,1.80
2023-01-11T03:00:23.584Z,1.97
2023-01-11T03:02:45.041Z,2.00
2023-01-11T03:05:24.457Z,1.80
2023-01-11T03:08:04.637Z,2.30
2023-01-11T03:10:47.537Z,2.10
2023-01-11T03:13:27.747Z,2.10
2023-01-11T03:16:15.761Z,2.00
2023-01-11T03:18:50.569Z,2.20
2023-01-11T03:21:36.757Z,2.23
2023-01-11T03:24:03.243Z,2.00
2023-01-11T03:26:37.087Z,2.10
2023-01-11T03:29:22.937Z,2.10
2023-01-11T03:32:24.997Z,1.87
2023-01-11T03:35:15.742Z,2.10
2023-01-11T03:38:03.404Z,1.87
2023-01-11T03:40:27.523Z,1.80
2023-01-11T03:43:10.931Z,1.80
2023-01-11T03:45:37.589Z,2.17
2023-01-11T03:48:02.996Z,1.60
2023-01-11T03:50:27.960Z,1.53
2023-01-11T03:52:51.287Z,1.50
2023-01-11T03:55:16.624Z,1.70
2023-01-11T03:57:43.702Z,1.43
2023-01-11T04:00:07.589Z,1.67
2023-01-11T04:02:35.800Z,1.43
2023-01-11T04:04:57.224Z,1.23
2023-01-11T04:07:18.975Z,1.63
2023-01-11T04:09:40.401Z,2.03
2023-01-11T04:12:01.836Z,1.67
2023-01-11T04:14:23.376Z,2.20
2023-01-11T04:16:44.794Z,4.20
2023-01-11T04:19:06.269Z,1.90
2023-01-11T04:21:27.646Z,1.97
2023-01-11T04:23:49.152Z,1.70
2023-01-11T04:26:10.555Z,1.97
2023-01-11T04:28:31.978Z,2.20
2023-01-11T04:30:53.803Z,3.70
2023-01-11T04:33:15.251Z,1.60
2023-01-11T04:35:36.691Z,1.70
2023-01-11T04:37:58.236Z,1.40
2023-01-11T04:40:20.277Z,2.30
2023-01-11T04:42:41.728Z,3.30
2023-01-11T04:45:06.070Z,2.67
2023-01-11T04:47:27.616Z,1.57
2023-01-11T04:49:49.522Z,1.33
2023-01-11T04:52:12.939Z,1.60
2023-01-11T04:54:34.396Z,1.90
2023-01-11T04:56:55.833Z,2.83
2023-01-11T04:59:17.355Z,2.00
2023-01-11T05:01:38.821Z,2.20
2023-01-11T05:04:00.312Z,2.17
2023-01-11T05:06:25.766Z,1.40
2023-01-11T05:08:47.609Z,2.73
2023-01-11T05:11:09.784Z,1.90
2023-01-11T05:13:43.759Z,2.50
2023-01-11T05:16:05.541Z,2.50
2023-01-11T05:18:27.009Z,1.73
2023-01-11T05:20:49.236Z,1.40
2023-01-11T05:23:10.683Z,2.10
2023-01-11T05:25:32.086Z,1.63
2023-01-11T05:27:53.564Z,1.33
2023-01-11T05:30:15.565Z,1.27
2023-01-11T05:32:37.037Z,1.50
2023-01-11T05:34:58.451Z,1.17
2023-01-11T05:37:19.870Z,1.10
2023-01-11T05:39:41.303Z,1.60
2023-01-11T05:42:02.730Z,1.57
2023-01-11T05:44:42.602Z,1.40
2023-01-11T05:47:04.352Z,1.77
2023-01-11T05:49:26.017Z,2.03
2023-01-11T05:51:47.422Z,2.10
2023-01-11T05:54:14.670Z,2.23
2023-01-11T05:56:36.086Z,2.10
2023-01-11T05:58:57.588Z,1.70
2023-01-11T06:01:20.730Z,1.63
2023-01-11T06:03:42.255Z,1.50
2023-01-11T06:06:03.760Z,1.80
2023-01-11T06:08:26.019Z,1.90
2023-01-11T06:10:51.789Z,1.80
2023-01-11T06:13:28.286Z,1.50
2023-01-11T06:15:49.766Z,2.00
2023-01-11T06:18:11.320Z,1.30
2023-01-11T06:20:32.783Z,1.30
2023-01-11T06:22:54.232Z,1.30
2023-01-11T06:25:15.652Z,1.10
2023-01-11T06:27:37.087Z,1.23
2023-01-11T06:29:58.485Z,1.10
2023-01-11T06:32:19.894Z,1.13
2023-01-11T06:34:41.342Z,1.20
2023-01-11T06:37:02.761Z,1.17
2023-01-11T06:39:24.183Z,1.20
2023-01-11T06:41:45.586Z,1.20
2023-01-11T06:44:07.088Z,1.20
2023-01-11T06:46:29.261Z,1.30
2023-01-11T06:48:50.932Z,1.57
2023-01-11T06:51:14.232Z,1.90
2023-01-11T06:53:35.696Z,1.70
2023-01-11T06:55:58.527Z,2.53
2023-01-11T06:58:22.394Z,1.50
2023-01-11T07:00:44.027Z,1.33
2023-01-11T07:03:06.829Z,1.50
2023-01-11T07:05:28.282Z,2.17
2023-01-11T07:07:49.730Z,1.47
2023-01-11T07:10:14.378Z,1.30
2023-01-11T07:12:36.980Z,1.43
2023-01-11T07:14:58.402Z,1.30
2023-01-11T07:17:19.820Z,1.10
2023-01-11T07:19:41.303Z,1.33
2023-01-11T07:22:02.774Z,1.13
2023-01-11T07:24:25.178Z,1.00
2023-01-11T07:26:46.582Z,1.17
2023-01-11T07:29:08.481Z,0.70
2023-01-11T07:31:29.918Z,1.00
2023-01-11T07:33:51.425Z,0.90
2023-01-11T07:36:12.831Z,0.70
2023-01-11T07:38:34.332Z,1.27
2023-01-11T07:40:55.732Z,1.50
2023-01-11T07:43:19.886Z,1.50
2023-01-11T07:45:46.512Z,0.73
2023-01-11T07:48:10.583Z,0.60
2023-01-11T07:50:32.271Z,0.70
2023-01-11T07:52:53.753Z,0.80
2023-01-11T07:55:16.111Z,0.87
2023-01-11T07:57:37.521Z,0.90
2023-01-11T07:59:58.941Z,0.60
2023-01-11T08:02:20.402Z,0.57
2023-01-11T08:04:41.877Z,0.50
2023-01-11T08:07:03.397Z,0.80
2023-01-11T08:09:24.834Z,0.50
2023-01-11T08:12:04.914Z,0.50
2023-01-11T08:14:41.481Z,0.50
2023-01-11T08:17:02.932Z,0.77
2023-01-11T08:19:24.394Z,0.60
2023-01-11T08:21:45.803Z,1.10
2023-01-11T08:24:07.282Z,0.60
2023-01-11T08:26:28.693Z,0.60
2023-01-11T08:28:50.468Z,0.80
2023-01-11T08:31:12.351Z,0.80
2023-01-11T08:33:33.788Z,1.17
2023-01-11T08:35:55.200Z,0.50
2023-01-11T08:38:16.669Z,0.90
2023-01-11T08:40:38.164Z,0.80
2023-01-11T08:42:59.817Z,0.53
2023-01-11T08:45:21.219Z,0.60
2023-01-11T08:47:42.711Z,0.60
2023-01-11T08:50:05.299Z,0.60
2023-01-11T08:52:26.805Z,0.40
2023-01-11T08:54:48.323Z,0.30
2023-01-11T08:57:10.506Z,0.50
2023-01-11T08:59:31.931Z,0.47
2023-01-11T09:01:53.432Z,0.50
2023-01-11T09:04:24.267Z,0.43
2023-01-11T09:06:46.403Z,7.23
2023-01-11T09:09:07.818Z,0.40
2023-01-11T09:11:47.664Z,0.60
2023-01-11T09:14:09.105Z,0.60
2023-01-11T09:16:30.710Z,0.50
2023-01-11T09:18:52.145Z,0.50
2023-01-11T09:21:14.126Z,0.53
2023-01-11T09:23:35.575Z,0.40
2023-01-11T09:25:57.054Z,0.50
2023-01-11T09:28:18.556Z,0.53
2023-01-11T09:30:39.969Z,0.53
2023-01-11T09:33:01.427Z,0.30
2023-01-11T09:35:22.929Z,0.60
2023-01-11T09:37:52.222Z,0.80
2023-01-11T09:40:20.698Z,0.77
2023-01-11T09:42:43.414Z,0.70
2023-01-11T09:45:24.351Z,0.80
2023-01-11T09:48:17.441Z,0.40
2023-01-11T09:50:45.531Z,0.60
2023-01-11T09:53:13.801Z,0.40
2023-01-11T09:55:50.861Z,0.40
2023-01-11T09:58:53.558Z,0.50
2023-01-11T10:01:30.011Z,0.60
2023-01-11T10:04:32.804Z,0.60
2023-01-11T10:07:12.376Z,4.30
2023-01-11T10:18:26.283Z,0.40
2023-01-11T10:19:33.415Z,0.50
2023-01-11T10:22:00.517Z,0.60
2023-01-11T10:24:29.046Z,0.40
2023-01-11T10:26:54.193Z,0.40
2023-01-11T10:29:46.473Z,0.40
2023-01-11T10:33:10.838Z,0.70
2023-01-11T10:35:45.919Z,0.50
2023-01-11T10:38:30.881Z,0.47
2023-01-11T10:41:06.871Z,0.70
2023-01-11T10:43:32.053Z,0.40
2023-01-11T10:46:00.778Z,0.70
2023-01-11T10:48:42.018Z,0.40
2023-01-11T10:51:48.679Z,0.43
2023-01-11T10:54:23.187Z,0.43
2023-01-11T10:57:22.875Z,0.50
2023-01-11T10:59:58.040Z,0.40
2023-01-11T11:03:23.384Z,0.40
2023-01-11T11:06:01.623Z,0.33
2023-01-11T11:08:35.753Z,0.40
2023-01-11T11:11:03.344Z,0.30
2023-01-11T11:14:05.597Z,0.40
2023-01-11T11:16:39.166Z,0.37
2023-01-11T11:19:01.267Z,0.30
2023-01-11T11:21:28.620Z,0.40
2023-01-11T11:24:01.963Z,0.50
2023-01-11T11:26:31.347Z,0.30
2023-01-11T11:29:02.281Z,0.27
2023-01-11T11:31:23.910Z,0.50
2023-01-11T11:33:46.462Z,0.30
2023-01-11T11:36:11.026Z,0.30
2023-01-11T11:38:37.874Z,0.23
2023-01-11T11:41:13.015Z,0.60
2023-01-11T11:44:10.302Z,2.23
2023-01-11T11:46:31.998Z,0.30
2023-01-11T11:49:13.198Z,0.27
2023-01-11T11:51:34.732Z,0.30
2023-01-11T11:53:57.250Z,0.50
2023-01-11T11:56:30.888Z,0.30
2023-01-11T11:58:54.049Z,3.00
2023-01-11T12:01:26.382Z,4.00
2023-01-11T12:03:48.815Z,2.77
2023-01-11T12:06:10.297Z,0.53
2023-01-11T12:08:34.607Z,0.90
2023-01-11T12:10:58.962Z,0.40
2023-01-11T12:13:40.297Z,0.73
2023-01-11T12:16:17.940Z,0.40
2023-01-11T12:18:42.841Z,0.40
2023-01-11T12:21:15.708Z,0.40
2023-01-11T12:23:37.124Z,0.40
2023-01-11T12:26:13.027Z,0.57
2023-01-11T12:29:22.988Z,0.27
2023-01-11T12:31:52.849Z,0.40
2023-01-11T12:34:19.995Z,0.27
2023-01-11T12:37:17.552Z,0.20
2023-01-11T12:39:44.767Z,0.20
2023-01-11T12:42:28.873Z,0.20
2023-01-11T12:45:02.467Z,0.17
2023-01-11T12:48:00.220Z,0.30
2023-01-11T12:50:41.160Z,0.30
2023-01-11T12:53:10.382Z,0.20
2023-01-11T12:55:57.991Z,0.50
2023-01-11T12:58:31.661Z,0.77
2023-01-11T13:01:45.583Z,0.40
2023-01-11T13:04:33.125Z,0.60
2023-01-11T13:07:12.839Z,0.30
2023-01-11T13:10:10.300Z,0.33
2023-01-11T13:12:53.527Z,0.40
2023-01-11T13:15:30.079Z,0.50
2023-01-11T13:18:03.596Z,0.50
2023-01-11T13:20:44.495Z,0.50
2023-01-11T13:23:35.442Z,0.80
2023-01-11T13:25:57.999Z,0.60
2023-01-11T13:28:31.098Z,0.30
2023-01-11T13:30:52.876Z,0.30
2023-01-11T13:33:21.633Z,1.00
2023-01-11T13:35:50.092Z,0.80
2023-01-11T13:38:49.912Z,0.40
2023-01-11T13:41:19.258Z,0.60
2023-01-11T13:43:59.460Z,0.80
2023-01-11T13:46:48.803Z,1.10
2023-01-11T13:49:35.219Z,0.80
2023-01-11T13:52:03.037Z,0.90
2023-01-11T13:54:41.497Z,0.47
2023-01-11T13:57:15.385Z,0.60
2023-01-11T13:59:45.664Z,0.50
2023-01-11T14:02:25.527Z,0.60
2023-01-11T14:04:52.813Z,0.60
2023-01-11T14:07:43.400Z,0.50
2023-01-11T14:10:33.059Z,0.50
2023-01-11T14:12:54.443Z,0.70
2023-01-11T14:15:40.667Z,0.57
2023-01-11T14:18:18.468Z,0.40
2023-01-11T14:21:08.266Z,0.33
2023-01-11T14:23:43.019Z,0.60
2023-01-11T14:26:29.318Z,0.40
2023-01-11T14:29:10.151Z,0.63
2023-01-11T14:31:57.985Z,0.63
2023-01-11T14:34:53.541Z,0.60
2023-01-11T14:37:51.820Z,0.70
2023-01-11T14:40:41.874Z,0.60
2023-01-11T14:43:39.531Z,0.70
2023-01-11T14:46:29.758Z,0.80
2023-01-11T14:49:10.832Z,0.83
2023-01-11T14:51:44.513Z,0.90
2023-01-11T14:54:08.228Z,0.83
2023-01-11T14:56:41.923Z,0.80
2023-01-11T14:59:22.251Z,0.70
2023-01-11T15:02:13.003Z,0.97
2023-01-11T15:04:37.634Z,1.23
2023-01-11T15:07:00.030Z,1.00
2023-01-11T15:09:50.967Z,1.30
2023-01-11T15:12:18.493Z,1.83
2023-01-11T15:14:47.262Z,3.37
2023-01-11T15:17:36.542Z,5.33
2023-01-11T15:20:07.381Z,2.30
2023-01-11T15:22:32.022Z,2.10
2023-01-11T15:25:00.575Z,7.13
2023-01-11T15:27:31.518Z,3.30
2023-01-11T15:29:57.331Z,1.63
2023-01-11T15:32:29.471Z,1.60
2023-01-11T15:34:50.946Z,2.40
2023-01-11T15:37:43.642Z,6.13
2023-01-11T15:40:14.105Z,10.57
2023-01-11T15:42:54.239Z,4.60
2023-01-11T15:46:03.477Z,2.13
2023-01-11T15:48:32.521Z,2.40
2023-01-11T15:51:09.176Z,1.77
2023-01-11T15:53:56.303Z,1.80
2023-01-11T15:56:26.465Z,2.47
2023-01-11T15:59:15.923Z,1.87
2023-01-11T16:02:11.526Z,2.27
2023-01-11T16:04:43.477Z,1.80
2023-01-11T16:07:18.401Z,2.00
2023-01-11T16:10:10.222Z,1.90
2023-01-11T16:12:45.465Z,2.30
2023-01-11T16:15:44.416Z,2.50
2023-01-11T16:18:21.650Z,2.57
2023-01-11T16:20:55.721Z,2.33
2023-01-11T16:23:20.848Z,2.60
2023-01-11T16:25:42.472Z,1.80
2023-01-11T16:28:04.714Z,2.37
2023-01-11T16:30:27.791Z,1.90
2023-01-11T16:32:49.320Z,2.40
2023-01-11T16:35:25.209Z,2.40
2023-01-11T16:37:51.799Z,2.33
2023-01-11T16:40:36.487Z,2.40
2023-01-11T16:43:05.206Z,2.87
2023-01-11T16:45:49.424Z,2.10
2023-01-11T16:48:19.091Z,2.20
2023-01-11T16:50:48.482Z,2.10
2023-01-11T16:53:14.342Z,2.43
2023-01-11T16:55:39.909Z,2.20
2023-01-11T16:58:28.886Z,2.37
2023-01-11T17:00:58.869Z,2.40
2023-01-11T17:03:24.098Z,2.70
2023-01-11T17:05:58.543Z,3.20
2023-01-11T17:08:48.111Z,2.67
2023-01-11T17:11:31.316Z,2.20
2023-01-11T17:14:14.512Z,2.80
2023-01-11T17:16:39.379Z,2.40
2023-01-11T17:19:14.305Z,2.67
2023-01-11T17:21:36.195Z,2.30
2023-01-11T17:24:04.282Z,2.40
2023-01-11T17:26:29.081Z,2.90
2023-01-11T17:28:55.772Z,2.23
2023-01-11T17:31:27.553Z,2.87
2023-01-11T17:33:59.206Z,3.00
2023-01-11T17:36:20.671Z,2.60
2023-01-11T17:38:43.899Z,2.50
2023-01-11T17:41:27.492Z,2.97
2023-01-11T17:44:07.786Z,2.47
2023-01-11T17:46:29.379Z,2.43
2023-01-11T17:48:56.242Z,2.57
2023-01-11T17:51:27.593Z,2.80
2023-01-11T17:53:50.457Z,3.10
2023-01-11T17:56:59.220Z,2.53
2023-01-11T17:59:24.036Z,2.50
2023-01-11T18:01:48.980Z,2.17
2023-01-11T18:04:19.699Z,2.57
2023-01-11T18:06:45.029Z,2.97
2023-01-11T18:09:18.362Z,2.40
2023-01-11T18:11:41.897Z,2.57
2023-01-11T18:14:07.406Z,3.13
2023-01-11T18:16:29.001Z,2.40
2023-01-11T18:18:52.045Z,2.87
2023-01-11T18:21:57.732Z,2.20
2023-01-11T18:24:30.213Z,2.10
2023-01-11T18:27:15.863Z,2.50
2023-01-11T18:29:37.219Z,2.03
2023-01-11T18:31:58.674Z,2.43
2023-01-11T18:34:20.073Z,2.57
2023-01-11T18:36:41.616Z,2.63
2023-01-11T18:39:09.942Z,2.27
2023-01-11T18:41:49.950Z,2.83
2023-01-11T18:44:11.994Z,2.17
2023-01-11T18:46:33.439Z,2.20
2023-01-11T18:48:54.912Z,4.07
2023-01-11T18:51:33.688Z,2.33
2023-01-11T18:53:55.108Z,2.40
2023-01-11T18:56:16.593Z,2.90
2023-01-11T18:58:37.993Z,2.10
2023-01-11T19:01:00.323Z,2.40
2023-01-11T19:03:21.830Z,2.50
2023-01-11T19:05:43.388Z,2.50
2023-01-11T19:08:05.038Z,2.43
2023-01-11T19:10:27.379Z,2.60
2023-01-11T19:12:49.280Z,2.43
2023-01-11T19:15:11.863Z,2.27
2023-01-11T19:17:33.379Z,2.43
2023-01-11T19:19:54.954Z,1.90
2023-01-11T19:22:16.425Z,2.27
2023-01-11T19:24:39.462Z,2.60
2023-01-11T19:27:01.140Z,2.30
2023-01-11T19:29:24.665Z,2.33
2023-01-11T19:31:47.404Z,2.23
2023-01-11T19:34:08.831Z,2.77
2023-01-11T19:36:32.238Z,2.47
2023-01-11T19:38:53.706Z,2.30
2023-01-11T19:41:16.647Z,2.13
2023-01-11T19:43:44.787Z,2.47
2023-01-11T19:46:06.323Z,2.33
2023-01-11T19:48:28.165Z,2.33
2023-01-11T19:50:49.653Z,2.73
2023-01-11T19:53:11.117Z,2.63
2023-01-11T19:55:32.542Z,2.20
2023-01-11T19:57:54.075Z,1.97
2023-01-11T20:00:15.956Z,2.40
2023-01-11T20:02:37.445Z,2.43
2023-01-11T20:04:58.877Z,2.60
2023-01-11T20:07:20.440Z,2.37
2023-01-11T20:09:41.999Z,2.50
2023-01-11T20:12:05.629Z,2.40
2023-01-11T20:14:27.090Z,2.57
2023-01-11T20:16:48.538Z,2.23
2023-01-11T20:19:10.311Z,2.03
2023-01-11T20:21:34.199Z,3.00
2023-01-11T20:23:57.679Z,2.53
2023-01-11T20:26:19.164Z,1.93
2023-01-11T20:28:49.393Z,2.77
2023-01-11T20:31:11.897Z,2.13
2023-01-11T20:33:33.525Z,2.20
2023-01-11T20:35:54.948Z,3.13
2023-01-11T20:38:16.826Z,2.10
2023-01-11T20:40:38.890Z,2.40
2023-01-11T20:43:00.307Z,2.30
2023-01-11T20:45:21.738Z,2.70
2023-01-11T20:47:43.178Z,2.37
2023-01-11T20:50:04.897Z,2.37
2023-01-11T20:52:26.333Z,2.90
2023-01-11T20:54:47.759Z,3.07
2023-01-11T20:57:12.485Z,3.20
2023-01-11T20:59:34.812Z,2.83
2023-01-11T21:01:56.337Z,3.10
2023-01-11T21:04:18.656Z,2.83
2023-01-11T21:06:42.398Z,3.03
2023-01-11T21:09:04.647Z,3.07
2023-01-11T21:11:27.038Z,3.10
2023-01-11T21:13:51.361Z,2.80
2023-01-11T21:16:16.623Z,2.70
2023-01-11T21:18:39.471Z,2.60
2023-01-11T21:21:00.970Z,3.20
2023-01-11T21:23:22.457Z,2.70
2023-01-11T21:25:43.878Z,2.73
2023-01-11T21:28:05.278Z,2.87
2023-01-11T21:30:26.680Z,3.13
2023-01-11T21:32:48.116Z,3.17
2023-01-11T21:35:09.661Z,2.63
2023-01-11T21:37:31.071Z,2.50
2023-01-11T21:39:52.612Z,2.67
2023-01-11T21:42:14.060Z,2.70
2023-01-11T21:44:35.509Z,2.97
2023-01-11T21:46:57.127Z,2.37
2023-01-11T21:49:18.594Z,2.57
2023-01-11T21:51:40.288Z,2.20
2023-01-11T21:54:07.525Z,2.40
2023-01-11T21:56:29.061Z,3.00
2023-01-11T21:58:50.658Z,2.30
2023-01-11T22:01:13.791Z,2.93
2023-01-11T22:03:35.342Z,2.60
2023-01-11T22:06:01.401Z,2.63
2023-01-11T22:08:23.034Z,2.40
2023-01-11T22:10:44.463Z,2.13
2023-01-11T22:13:05.889Z,2.57
2023-01-11T22:15:27.359Z,2.53
2023-01-11T22:17:48.806Z,2.30
2023-01-11T22:20:11.116Z,2.63
2023-01-11T22:22:32.955Z,2.60
2023-01-11T22:24:54.399Z,2.63
2023-01-11T22:27:15.959Z,2.10
2023-01-11T22:29:37.474Z,2.20
2023-01-11T22:32:01.417Z,2.47
2023-01-11T22:34:24.263Z,2.73
2023-01-11T22:36:46.657Z,2.53
2023-01-11T22:39:08.462Z,2.83
2023-01-11T22:41:30.258Z,2.37
2023-01-11T22:43:53.290Z,2.13
2023-01-11T22:46:17.789Z,2.23
2023-01-11T22:48:39.227Z,1.80
2023-01-11T22:51:05.422Z,2.57
2023-01-11T22:53:26.869Z,2.17
2023-01-11T22:55:48.333Z,2.50
2023-01-11T22:58:09.723Z,2.37
2023-01-11T23:00:31.185Z,2.10
2023-01-11T23:02:52.715Z,2.60
2023-01-11T23:05:14.265Z,1.83
2023-01-11T23:07:35.682Z,2.80
2023-01-11T23:09:57.088Z,2.53
2023-01-11T23:12:37.173Z,1.93
2023-01-11T23:14:58.576Z,2.13
2023-01-11T23:17:20.621Z,2.70
2023-01-11T23:19:42.151Z,1.90
2023-01-11T23:22:04.029Z,2.60
2023-01-11T23:24:25.456Z,2.83
2023-01-11T23:26:46.982Z,2.30
2023-01-11T23:29:08.692Z,2.10
2023-01-11T23:31:30.750Z,2.07
2023-01-11T23:33:55.867Z,2.27
2023-01-11T23:36:18.955Z,2.07
2023-01-11T23:38:40.422Z,2.10
2023-01-11T23:41:28.074Z,1.63
2023-01-11T23:43:49.729Z,2.40
2023-01-11T23:46:30.253Z,2.97
2023-01-11T23:48:51.664Z,1.83
2023-01-11T23:51:13.077Z,2.67
2023-01-11T23:53:34.500Z,2.40
2023-01-11T23:55:55.960Z,2.20
2023-01-11T23:58:19.525Z,2.50
